sensor_id;sensor_type;location;lat;lon;timestamp;P1;durP1;ratioP1;P2;durP2;ratioP2
17858;SDS011;35426;30.698;104.050;2022-12-18T00:01:57;92.53;;;34.53;;
17858;SDS011;35426;30.698;104.050;2022-12-18T00:04:33;101.77;;;35.43;;
17858;SDS011;35426;30.698;104.050;2022-12-18T00:07:07;90.50;;;33.73;;
17858;SDS011;35426;30.698;104.050;2022-12-18T00:09:41;89.10;;;34.13;;
17858;SDS011;35426;30.698;104.050;2022-12-18T00:12:15;91.43;;;34.63;;
17858;SDS011;35426;30.698;104.050;2022-12-18T00:14:48;87.93;;;34.50;;
17858;SDS011;35426;30.698;104.050;2022-12-18T00:17:24;101.13;;;34.60;;
17858;SDS011;35426;30.698;104.050;2022-12-18T00:19:59;85.97;;;34.33;;
17858;SDS011;35426;30.698;104.050;2022-12-18T00:22:34;91.50;;;33.90;;
17858;SDS011;35426;30.698;104.050;2022-12-18T00:25:08;90.33;;;36.07;;
17858;SDS011;35426;30.698;104.050;2022-12-18T00:27:42;94.23;;;35.83;;
17858;SDS011;35426;30.698;104.050;2022-12-18T00:30:17;104.43;;;37.47;;
17858;SDS011;35426;30.698;104.050;2022-12-18T00:32:51;110.40;;;37.27;;
17858;SDS011;35426;30.698;104.050;2022-12-18T00:35:27;95.07;;;37.13;;
17858;SDS011;35426;30.698;104.050;2022-12-18T00:38:01;100.57;;;37.53;;
17858;SDS011;35426;30.698;104.050;2022-12-18T00:40:35;98.30;;;37.37;;
17858;SDS011;35426;30.698;104.050;2022-12-18T00:43:10;100.47;;;37.90;;
17858;SDS011;35426;30.698;104.050;2022-12-18T00:45:42;95.87;;;37.57;;
17858;SDS011;35426;30.698;104.050;2022-12-18T00:48:17;95.00;;;37.20;;
17858;SDS011;35426;30.698;104.050;2022-12-18T00:50:53;98.67;;;38.10;;
17858;SDS011;35426;30.698;104.050;2022-12-18T00:53:27;104.83;;;39.57;;
17858;SDS011;35426;30.698;104.050;2022-12-18T00:56:02;102.13;;;38.77;;
17858;SDS011;35426;30.698;104.050;2022-12-18T00:58:36;107.50;;;40.27;;
17858;SDS011;35426;30.698;104.050;2022-12-18T01:01:10;96.63;;;40.10;;
17858;SDS011;35426;30.698;104.050;2022-12-18T01:03:44;97.30;;;40.40;;
17858;SDS011;35426;30.698;104.050;2022-12-18T01:06:22;103.77;;;41.80;;
17858;SDS011;35426;30.698;104.050;2022-12-18T01:08:56;107.10;;;42.77;;
17858;SDS011;35426;30.698;104.050;2022-12-18T01:11:30;107.20;;;41.13;;
17858;SDS011;35426;30.698;104.050;2022-12-18T01:14:04;103.90;;;40.90;;
17858;SDS011;35426;30.698;104.050;2022-12-18T01:16:38;109.67;;;40.70;;
17858;SDS011;35426;30.698;104.050;2022-12-18T01:19:12;104.90;;;40.77;;
17858;SDS011;35426;30.698;104.050;2022-12-18T01:21:48;103.10;;;40.97;;
17858;SDS011;35426;30.698;104.050;2022-12-18T01:24:23;110.97;;;40.63;;
17858;SDS011;35426;30.698;104.050;2022-12-18T01:26:57;99.93;;;40.67;;
17858;SDS011;35426;30.698;104.050;2022-12-18T01:29:31;110.07;;;41.27;;
17858;SDS011;35426;30.698;104.050;2022-12-18T01:32:06;103.63;;;39.33;;
17858;SDS011;35426;30.698;104.050;2022-12-18T01:34:41;110.97;;;40.57;;
17858;SDS011;35426;30.698;104.050;2022-12-18T01:37:17;100.80;;;40.90;;
17858;SDS011;35426;30.698;104.050;2022-12-18T01:39:54;100.43;;;40.20;;
17858;SDS011;35426;30.698;104.050;2022-12-18T01:42:28;107.73;;;40.83;;
17858;SDS011;35426;30.698;104.050;2022-12-18T01:47:58;93.83;;;38.13;;
17858;SDS011;35426;30.698;104.050;2022-12-18T01:50:36;87.43;;;37.93;;
17858;SDS011;35426;30.698;104.050;2022-12-18T01:53:15;88.90;;;38.53;;
17858;SDS011;35426;30.698;104.050;2022-12-18T01:55:53;105.30;;;39.03;;
17858;SDS011;35426;30.698;104.050;2022-12-18T01:58:29;91.17;;;38.37;;
17858;SDS011;35426;30.698;104.050;2022-12-18T02:01:07;98.67;;;38.20;;
17858;SDS011;35426;30.698;104.050;2022-12-18T02:03:42;90.23;;;38.27;;
17858;SDS011;35426;30.698;104.050;2022-12-18T02:06:17;95.97;;;38.27;;
17858;SDS011;35426;30.698;104.050;2022-12-18T02:09:00;87.00;;;37.30;;
17858;SDS011;35426;30.698;104.050;2022-12-18T02:11:43;94.20;;;37.47;;
17858;SDS011;35426;30.698;104.050;2022-12-18T02:14:23;101.73;;;38.97;;
17858;SDS011;35426;30.698;104.050;2022-12-18T02:17:06;102.40;;;38.10;;
17858;SDS011;35426;30.698;104.050;2022-12-18T02:19:45;99.20;;;36.87;;
17858;SDS011;35426;30.698;104.050;2022-12-18T02:22:33;100.83;;;38.43;;
17858;SDS011;35426;30.698;104.050;2022-12-18T02:25:17;87.70;;;36.03;;
17858;SDS011;35426;30.698;104.050;2022-12-18T02:28:02;96.97;;;38.13;;
17858;SDS011;35426;30.698;104.050;2022-12-18T02:30:41;80.50;;;35.53;;
17858;SDS011;35426;30.698;104.050;2022-12-18T02:33:17;89.43;;;37.00;;
17858;SDS011;35426;30.698;104.050;2022-12-18T02:35:53;89.67;;;37.83;;
17858;SDS011;35426;30.698;104.050;2022-12-18T02:38:31;92.43;;;37.80;;
17858;SDS011;35426;30.698;104.050;2022-12-18T02:41:12;90.77;;;39.37;;
17858;SDS011;35426;30.698;104.050;2022-12-18T02:43:52;91.70;;;37.47;;
17858;SDS011;35426;30.698;104.050;2022-12-18T02:46:33;92.13;;;39.13;;
17858;SDS011;35426;30.698;104.050;2022-12-18T02:49:18;89.70;;;37.40;;
17858;SDS011;35426;30.698;104.050;2022-12-18T02:52:04;89.63;;;37.63;;
17858;SDS011;35426;30.698;104.050;2022-12-18T02:54:50;90.53;;;37.83;;
17858;SDS011;35426;30.698;104.050;2022-12-18T02:57:33;84.73;;;37.43;;
17858;SDS011;35426;30.698;104.050;2022-12-18T03:00:16;95.43;;;37.47;;
17858;SDS011;35426;30.698;104.050;2022-12-18T03:02:54;89.43;;;36.10;;
17858;SDS011;35426;30.698;104.050;2022-12-18T03:05:36;89.87;;;37.30;;
17858;SDS011;35426;30.698;104.050;2022-12-18T03:08:14;87.60;;;37.73;;
17858;SDS011;35426;30.698;104.050;2022-12-18T03:10:51;81.40;;;36.83;;
17858;SDS011;35426;30.698;104.050;2022-12-18T03:13:33;75.43;;;36.23;;
17858;SDS011;35426;30.698;104.050;2022-12-18T03:16:17;83.10;;;37.33;;
17858;SDS011;35426;30.698;104.050;2022-12-18T03:18:56;92.77;;;38.10;;
17858;SDS011;35426;30.698;104.050;2022-12-18T03:21:40;78.30;;;36.53;;
17858;SDS011;35426;30.698;104.050;2022-12-18T03:24:24;89.07;;;38.27;;
17858;SDS011;35426;30.698;104.050;2022-12-18T03:27:01;90.57;;;37.57;;
17858;SDS011;35426;30.698;104.050;2022-12-18T03:29:38;98.63;;;37.90;;
17858;SDS011;35426;30.698;104.050;2022-12-18T03:32:23;98.63;;;37.67;;
17858;SDS011;35426;30.698;104.050;2022-12-18T03:35:00;93.73;;;37.60;;
17858;SDS011;35426;30.698;104.050;2022-12-18T03:37:37;95.43;;;37.77;;
17858;SDS011;35426;30.698;104.050;2022-12-18T03:40:12;107.63;;;39.47;;
17858;SDS011;35426;30.698;104.050;2022-12-18T03:42:49;92.37;;;39.33;;
17858;SDS011;35426;30.698;104.050;2022-12-18T03:45:34;101.57;;;39.27;;
17858;SDS011;35426;30.698;104.050;2022-12-18T03:48:14;89.13;;;38.03;;
17858;SDS011;35426;30.698;104.050;2022-12-18T03:50:53;87.53;;;37.23;;
17858;SDS011;35426;30.698;104.050;2022-12-18T03:53:33;96.67;;;40.23;;
17858;SDS011;35426;30.698;104.050;2022-12-18T03:56:12;100.17;;;41.00;;
17858;SDS011;35426;30.698;104.050;2022-12-18T03:58:49;100.43;;;39.43;;
17858;SDS011;35426;30.698;104.050;2022-12-18T04:01:29;97.80;;;38.97;;
17858;SDS011;35426;30.698;104.050;2022-12-18T04:04:12;88.77;;;37.37;;
17858;SDS011;35426;30.698;104.050;2022-12-18T04:06:52;98.83;;;38.00;;
17858;SDS011;35426;30.698;104.050;2022-12-18T04:09:29;91.87;;;35.23;;
17858;SDS011;35426;30.698;104.050;2022-12-18T04:12:09;107.30;;;39.70;;
17858;SDS011;35426;30.698;104.050;2022-12-18T04:14:47;86.13;;;35.83;;
17858;SDS011;35426;30.698;104.050;2022-12-18T04:17:25;80.20;;;34.90;;
17858;SDS011;35426;30.698;104.050;2022-12-18T04:20:04;88.80;;;35.23;;
17858;SDS011;35426;30.698;104.050;2022-12-18T04:22:44;85.53;;;34.83;;
17858;SDS011;35426;30.698;104.050;2022-12-18T04:25:21;94.03;;;36.00;;
17858;SDS011;35426;30.698;104.050;2022-12-18T04:28:12;91.53;;;35.67;;
17858;SDS011;35426;30.698;104.050;2022-12-18T04:30:49;83.27;;;32.87;;
17858;SDS011;35426;30.698;104.050;2022-12-18T04:33:25;80.97;;;31.73;;
17858;SDS011;35426;30.698;104.050;2022-12-18T04:36:05;76.27;;;26.93;;
17858;SDS011;35426;30.698;104.050;2022-12-18T04:38:43;70.33;;;28.80;;
17858;SDS011;35426;30.698;104.050;2022-12-18T04:41:22;72.27;;;29.67;;
17858;SDS011;35426;30.698;104.050;2022-12-18T04:43:58;75.67;;;28.97;;
17858;SDS011;35426;30.698;104.050;2022-12-18T04:46:36;76.73;;;27.97;;
17858;SDS011;35426;30.698;104.050;2022-12-18T04:49:13;77.43;;;27.37;;
17858;SDS011;35426;30.698;104.050;2022-12-18T04:51:51;80.00;;;29.03;;
17858;SDS011;35426;30.698;104.050;2022-12-18T04:54:28;71.37;;;28.67;;
17858;SDS011;35426;30.698;104.050;2022-12-18T04:57:06;83.40;;;29.50;;
17858;SDS011;35426;30.698;104.050;2022-12-18T04:59:43;82.27;;;28.57;;
17858;SDS011;35426;30.698;104.050;2022-12-18T05:02:20;81.33;;;27.20;;
17858;SDS011;35426;30.698;104.050;2022-12-18T05:04:57;71.73;;;27.23;;
17858;SDS011;35426;30.698;104.050;2022-12-18T05:07:34;85.97;;;27.27;;
17858;SDS011;35426;30.698;104.050;2022-12-18T05:10:10;75.30;;;27.03;;
17858;SDS011;35426;30.698;104.050;2022-12-18T05:12:48;79.50;;;28.57;;
17858;SDS011;35426;30.698;104.050;2022-12-18T05:15:33;68.63;;;26.47;;
17858;SDS011;35426;30.698;104.050;2022-12-18T05:18:08;53.97;;;20.83;;
17858;SDS011;35426;30.698;104.050;2022-12-18T05:20:44;58.20;;;21.80;;
17858;SDS011;35426;30.698;104.050;2022-12-18T05:23:24;56.53;;;19.83;;
17858;SDS011;35426;30.698;104.050;2022-12-18T05:25:59;62.30;;;20.17;;
17858;SDS011;35426;30.698;104.050;2022-12-18T05:28:35;62.33;;;20.77;;
17858;SDS011;35426;30.698;104.050;2022-12-18T05:31:10;59.20;;;20.73;;
17858;SDS011;35426;30.698;104.050;2022-12-18T05:33:45;56.57;;;19.20;;
17858;SDS011;35426;30.698;104.050;2022-12-18T05:36:20;62.53;;;22.40;;
17858;SDS011;35426;30.698;104.050;2022-12-18T05:38:58;69.13;;;22.87;;
17858;SDS011;35426;30.698;104.050;2022-12-18T05:41:34;64.23;;;22.83;;
17858;SDS011;35426;30.698;104.050;2022-12-18T05:44:10;68.13;;;24.43;;
17858;SDS011;35426;30.698;104.050;2022-12-18T05:46:45;72.40;;;23.73;;
17858;SDS011;35426;30.698;104.050;2022-12-18T05:49:21;74.20;;;24.47;;
17858;SDS011;35426;30.698;104.050;2022-12-18T05:51:56;72.67;;;25.23;;
17858;SDS011;35426;30.698;104.050;2022-12-18T05:54:35;71.13;;;24.33;;
17858;SDS011;35426;30.698;104.050;2022-12-18T05:57:12;67.80;;;25.00;;
17858;SDS011;35426;30.698;104.050;2022-12-18T05:59:48;65.73;;;24.33;;
17858;SDS011;35426;30.698;104.050;2022-12-18T06:02:25;69.83;;;25.27;;
17858;SDS011;35426;30.698;104.050;2022-12-18T06:05:03;69.90;;;24.73;;
17858;SDS011;35426;30.698;104.050;2022-12-18T06:07:41;61.07;;;24.90;;
17858;SDS011;35426;30.698;104.050;2022-12-18T06:10:28;65.53;;;23.83;;
17858;SDS011;35426;30.698;104.050;2022-12-18T06:13:04;61.60;;;24.40;;
17858;SDS011;35426;30.698;104.050;2022-12-18T06:15:42;67.77;;;23.57;;
17858;SDS011;35426;30.698;104.050;2022-12-18T06:18:19;68.50;;;23.37;;
17858;SDS011;35426;30.698;104.050;2022-12-18T06:20:56;67.70;;;23.90;;
17858;SDS011;35426;30.698;104.050;2022-12-18T06:23:32;66.27;;;23.47;;
17858;SDS011;35426;30.698;104.050;2022-12-18T06:26:12;67.63;;;23.47;;
17858;SDS011;35426;30.698;104.050;2022-12-18T06:28:56;62.77;;;22.20;;
17858;SDS011;35426;30.698;104.050;2022-12-18T06:31:32;61.27;;;20.90;;
17858;SDS011;35426;30.698;104.050;2022-12-18T06:34:09;62.70;;;22.57;;
17858;SDS011;35426;30.698;104.050;2022-12-18T06:36:58;55.20;;;20.63;;
17858;SDS011;35426;30.698;104.050;2022-12-18T06:39:34;63.93;;;22.07;;
17858;SDS011;35426;30.698;104.050;2022-12-18T06:42:11;54.73;;;21.40;;
17858;SDS011;35426;30.698;104.050;2022-12-18T06:44:51;55.50;;;20.73;;
17858;SDS011;35426;30.698;104.050;2022-12-18T06:47:27;60.00;;;20.80;;
17858;SDS011;35426;30.698;104.050;2022-12-18T06:50:04;51.40;;;19.27;;
17858;SDS011;35426;30.698;104.050;2022-12-18T06:52:40;52.60;;;20.00;;
17858;SDS011;35426;30.698;104.050;2022-12-18T06:55:21;51.50;;;17.73;;
17858;SDS011;35426;30.698;104.050;2022-12-18T06:57:59;48.10;;;18.03;;
17858;SDS011;35426;30.698;104.050;2022-12-18T07:00:38;54.53;;;18.07;;
17858;SDS011;35426;30.698;104.050;2022-12-18T07:03:14;50.63;;;17.47;;
17858;SDS011;35426;30.698;104.050;2022-12-18T07:05:51;57.73;;;17.40;;
17858;SDS011;35426;30.698;104.050;2022-12-18T07:08:27;46.03;;;17.30;;
17858;SDS011;35426;30.698;104.050;2022-12-18T07:11:05;45.83;;;17.73;;
17858;SDS011;35426;30.698;104.050;2022-12-18T07:13:44;51.43;;;18.63;;
17858;SDS011;35426;30.698;104.050;2022-12-18T07:16:21;56.23;;;18.40;;
17858;SDS011;35426;30.698;104.050;2022-12-18T07:18:58;58.97;;;19.53;;
17858;SDS011;35426;30.698;104.050;2022-12-18T07:21:36;55.50;;;19.13;;
17858;SDS011;35426;30.698;104.050;2022-12-18T07:24:12;55.57;;;18.77;;
17858;SDS011;35426;30.698;104.050;2022-12-18T07:26:49;53.23;;;18.70;;
17858;SDS011;35426;30.698;104.050;2022-12-18T07:29:27;55.00;;;19.60;;
17858;SDS011;35426;30.698;104.050;2022-12-18T07:32:08;53.87;;;18.77;;
17858;SDS011;35426;30.698;104.050;2022-12-18T07:34:44;51.00;;;18.83;;
17858;SDS011;35426;30.698;104.050;2022-12-18T07:37:23;59.97;;;19.57;;
17858;SDS011;35426;30.698;104.050;2022-12-18T07:40:02;51.03;;;18.97;;
17858;SDS011;35426;30.698;104.050;2022-12-18T07:42:40;69.40;;;19.77;;
17858;SDS011;35426;30.698;104.050;2022-12-18T07:45:23;58.30;;;20.10;;
17858;SDS011;35426;30.698;104.050;2022-12-18T07:47:59;47.27;;;20.00;;
17858;SDS011;35426;30.698;104.050;2022-12-18T07:50:35;63.33;;;21.07;;
17858;SDS011;35426;30.698;104.050;2022-12-18T07:53:11;65.23;;;19.83;;
17858;SDS011;35426;30.698;104.050;2022-12-18T07:55:54;64.73;;;22.33;;
17858;SDS011;35426;30.698;104.050;2022-12-18T07:58:50;57.80;;;21.30;;
17858;SDS011;35426;30.698;104.050;2022-12-18T08:01:29;53.83;;;20.53;;
17858;SDS011;35426;30.698;104.050;2022-12-18T08:04:05;61.90;;;20.97;;
17858;SDS011;35426;30.698;104.050;2022-12-18T08:06:42;64.00;;;20.83;;
17858;SDS011;35426;30.698;104.050;2022-12-18T08:09:19;52.33;;;20.47;;
17858;SDS011;35426;30.698;104.050;2022-12-18T08:11:55;55.37;;;20.20;;
17858;SDS011;35426;30.698;104.050;2022-12-18T08:14:31;53.17;;;21.03;;
17858;SDS011;35426;30.698;104.050;2022-12-18T08:17:09;61.87;;;20.70;;
17858;SDS011;35426;30.698;104.050;2022-12-18T08:19:46;61.23;;;21.50;;
17858;SDS011;35426;30.698;104.050;2022-12-18T08:22:26;51.43;;;20.47;;
17858;SDS011;35426;30.698;104.050;2022-12-18T08:25:02;53.90;;;20.13;;
17858;SDS011;35426;30.698;104.050;2022-12-18T08:27:40;60.73;;;20.97;;
17858;SDS011;35426;30.698;104.050;2022-12-18T08:30:16;59.17;;;20.93;;
17858;SDS011;35426;30.698;104.050;2022-12-18T08:32:56;55.83;;;21.07;;
17858;SDS011;35426;30.698;104.050;2022-12-18T08:35:35;59.70;;;22.17;;
17858;SDS011;35426;30.698;104.050;2022-12-18T08:38:13;57.87;;;21.07;;
17858;SDS011;35426;30.698;104.050;2022-12-18T08:40:53;62.13;;;21.30;;
17858;SDS011;35426;30.698;104.050;2022-12-18T08:43:36;57.73;;;22.27;;
17858;SDS011;35426;30.698;104.050;2022-12-18T08:46:30;60.83;;;22.47;;
17858;SDS011;35426;30.698;104.050;2022-12-18T08:49:11;59.03;;;21.80;;
17858;SDS011;35426;30.698;104.050;2022-12-18T08:51:54;55.77;;;22.20;;
17858;SDS011;35426;30.698;104.050;2022-12-18T08:54:30;64.80;;;22.77;;
17858;SDS011;35426;30.698;104.050;2022-12-18T08:57:07;64.63;;;22.87;;
17858;SDS011;35426;30.698;104.050;2022-12-18T08:59:43;58.50;;;22.60;;
17858;SDS011;35426;30.698;104.050;2022-12-18T09:02:19;63.00;;;23.40;;
17858;SDS011;35426;30.698;104.050;2022-12-18T09:04:58;64.30;;;22.77;;
17858;SDS011;35426;30.698;104.050;2022-12-18T09:07:33;50.90;;;22.97;;
17858;SDS011;35426;30.698;104.050;2022-12-18T09:10:09;67.33;;;22.90;;
17858;SDS011;35426;30.698;104.050;2022-12-18T09:12:44;59.43;;;23.17;;
17858;SDS011;35426;30.698;104.050;2022-12-18T09:15:20;71.03;;;24.27;;
17858;SDS011;35426;30.698;104.050;2022-12-18T09:17:56;76.13;;;24.30;;
17858;SDS011;35426;30.698;104.050;2022-12-18T09:20:34;65.60;;;23.73;;
17858;SDS011;35426;30.698;104.050;2022-12-18T09:23:11;63.73;;;25.57;;
17858;SDS011;35426;30.698;104.050;2022-12-18T09:25:48;68.07;;;24.33;;
17858;SDS011;35426;30.698;104.050;2022-12-18T09:28:27;66.23;;;24.03;;
17858;SDS011;35426;30.698;104.050;2022-12-18T09:31:06;58.57;;;24.83;;
17858;SDS011;35426;30.698;104.050;2022-12-18T09:33:44;68.87;;;25.20;;
17858;SDS011;35426;30.698;104.050;2022-12-18T09:36:21;64.03;;;24.83;;
17858;SDS011;35426;30.698;104.050;2022-12-18T09:38:58;64.10;;;23.90;;
17858;SDS011;35426;30.698;104.050;2022-12-18T09:41:43;63.20;;;24.40;;
17858;SDS011;35426;30.698;104.050;2022-12-18T09:44:25;66.70;;;24.73;;
17858;SDS011;35426;30.698;104.050;2022-12-18T09:47:13;72.73;;;23.93;;
17858;SDS011;35426;30.698;104.050;2022-12-18T09:49:52;63.03;;;23.80;;
17858;SDS011;35426;30.698;104.050;2022-12-18T09:52:33;68.47;;;23.27;;
17858;SDS011;35426;30.698;104.050;2022-12-18T09:55:15;76.97;;;23.63;;
17858;SDS011;35426;30.698;104.050;2022-12-18T09:58:06;67.53;;;22.90;;
17858;SDS011;35426;30.698;104.050;2022-12-18T10:00:48;67.47;;;22.57;;
17858;SDS011;35426;30.698;104.050;2022-12-18T10:03:27;80.43;;;24.80;;
17858;SDS011;35426;30.698;104.050;2022-12-18T10:06:04;78.33;;;24.60;;
17858;SDS011;35426;30.698;104.050;2022-12-18T10:08:51;69.40;;;24.30;;
17858;SDS011;35426;30.698;104.050;2022-12-18T10:11:34;68.77;;;23.93;;
17858;SDS011;35426;30.698;104.050;2022-12-18T10:14:35;68.50;;;23.80;;
17858;SDS011;35426;30.698;104.050;2022-12-18T10:17:19;73.70;;;24.40;;
17858;SDS011;35426;30.698;104.050;2022-12-18T10:20:00;69.37;;;23.43;;
17858;SDS011;35426;30.698;104.050;2022-12-18T10:22:46;71.40;;;25.23;;
17858;SDS011;35426;30.698;104.050;2022-12-18T10:25:31;70.73;;;24.60;;
17858;SDS011;35426;30.698;104.050;2022-12-18T10:28:17;66.60;;;24.03;;
17858;SDS011;35426;30.698;104.050;2022-12-18T10:30:54;70.10;;;23.83;;
17858;SDS011;35426;30.698;104.050;2022-12-18T10:33:30;72.87;;;24.30;;
17858;SDS011;35426;30.698;104.050;2022-12-18T10:36:08;71.67;;;23.73;;
17858;SDS011;35426;30.698;104.050;2022-12-18T10:38:45;69.33;;;24.37;;
17858;SDS011;35426;30.698;104.050;2022-12-18T10:41:26;68.50;;;24.73;;
17858;SDS011;35426;30.698;104.050;2022-12-18T10:44:12;70.27;;;24.57;;
17858;SDS011;35426;30.698;104.050;2022-12-18T10:46:55;71.73;;;24.50;;
17858;SDS011;35426;30.698;104.050;2022-12-18T10:49:46;62.33;;;23.60;;
17858;SDS011;35426;30.698;104.050;2022-12-18T10:52:25;60.07;;;22.37;;
17858;SDS011;35426;30.698;104.050;2022-12-18T10:55:15;67.10;;;22.57;;
17858;SDS011;35426;30.698;104.050;2022-12-18T10:57:55;76.47;;;25.43;;
17858;SDS011;35426;30.698;104.050;2022-12-18T11:01:05;61.13;;;23.73;;
17858;SDS011;35426;30.698;104.050;2022-12-18T11:03:45;65.00;;;24.37;;
17858;SDS011;35426;30.698;104.050;2022-12-18T11:06:32;65.83;;;24.27;;
17858;SDS011;35426;30.698;104.050;2022-12-18T11:09:26;71.23;;;25.07;;
17858;SDS011;35426;30.698;104.050;2022-12-18T11:12:04;76.57;;;25.00;;
17858;SDS011;35426;30.698;104.050;2022-12-18T11:14:59;67.83;;;25.80;;
17858;SDS011;35426;30.698;104.050;2022-12-18T11:17:36;73.10;;;25.17;;
17858;SDS011;35426;30.698;104.050;2022-12-18T11:20:20;73.50;;;26.80;;
17858;SDS011;35426;30.698;104.050;2022-12-18T11:23:10;72.50;;;26.10;;
17858;SDS011;35426;30.698;104.050;2022-12-18T11:25:57;72.90;;;27.07;;
17858;SDS011;35426;30.698;104.050;2022-12-18T11:28:36;71.80;;;25.30;;
17858;SDS011;35426;30.698;104.050;2022-12-18T11:31:24;65.20;;;26.23;;
17858;SDS011;35426;30.698;104.050;2022-12-18T11:34:02;78.40;;;26.77;;
17858;SDS011;35426;30.698;104.050;2022-12-18T11:36:59;67.63;;;26.07;;
17858;SDS011;35426;30.698;104.050;2022-12-18T11:39:37;70.80;;;25.83;;
17858;SDS011;35426;30.698;104.050;2022-12-18T11:42:19;69.47;;;25.70;;
17858;SDS011;35426;30.698;104.050;2022-12-18T11:44:59;76.23;;;26.43;;
17858;SDS011;35426;30.698;104.050;2022-12-18T11:47:47;75.93;;;26.07;;
17858;SDS011;35426;30.698;104.050;2022-12-18T11:50:34;71.37;;;25.83;;
17858;SDS011;35426;30.698;104.050;2022-12-18T11:53:21;72.93;;;26.27;;
17858;SDS011;35426;30.698;104.050;2022-12-18T11:56:03;67.47;;;26.13;;
17858;SDS011;35426;30.698;104.050;2022-12-18T11:58:57;69.03;;;26.17;;
17858;SDS011;35426;30.698;104.050;2022-12-18T12:01:44;66.10;;;24.50;;
17858;SDS011;35426;30.698;104.050;2022-12-18T12:04:35;71.33;;;25.30;;
17858;SDS011;35426;30.698;104.050;2022-12-18T12:07:36;64.33;;;24.90;;
17858;SDS011;35426;30.698;104.050;2022-12-18T12:10:26;66.43;;;24.10;;
17858;SDS011;35426;30.698;104.050;2022-12-18T12:13:19;69.70;;;25.10;;
17858;SDS011;35426;30.698;104.050;2022-12-18T12:16:09;69.13;;;25.67;;
17858;SDS011;35426;30.698;104.050;2022-12-18T12:19:03;67.67;;;25.63;;
17858;SDS011;35426;30.698;104.050;2022-12-18T12:21:57;60.00;;;23.17;;
17858;SDS011;35426;30.698;104.050;2022-12-18T12:24:44;73.83;;;25.50;;
17858;SDS011;35426;30.698;104.050;2022-12-18T12:27:30;63.53;;;23.80;;
17858;SDS011;35426;30.698;104.050;2022-12-18T12:30:19;79.07;;;24.30;;
17858;SDS011;35426;30.698;104.050;2022-12-18T12:33:02;69.20;;;23.77;;
17858;SDS011;35426;30.698;104.050;2022-12-18T12:35:51;71.33;;;24.77;;
17858;SDS011;35426;30.698;104.050;2022-12-18T12:38:36;65.60;;;23.27;;
17858;SDS011;35426;30.698;104.050;2022-12-18T12:41:20;67.70;;;24.97;;
17858;SDS011;35426;30.698;104.050;2022-12-18T12:44:14;64.80;;;24.73;;
17858;SDS011;35426;30.698;104.050;2022-12-18T12:46:56;59.23;;;23.60;;
17858;SDS011;35426;30.698;104.050;2022-12-18T12:49:35;66.70;;;23.57;;
17858;SDS011;35426;30.698;104.050;2022-12-18T12:52:21;62.70;;;23.43;;
17858;SDS011;35426;30.698;104.050;2022-12-18T12:55:12;66.73;;;24.27;;
17858;SDS011;35426;30.698;104.050;2022-12-18T12:57:55;66.63;;;23.33;;
17858;SDS011;35426;30.698;104.050;2022-12-18T13:00:41;68.20;;;24.73;;
17858;SDS011;35426;30.698;104.050;2022-12-18T13:03:28;65.23;;;23.40;;
17858;SDS011;35426;30.698;104.050;2022-12-18T13:06:18;62.03;;;24.63;;
17858;SDS011;35426;30.698;104.050;2022-12-18T13:09:12;71.07;;;23.70;;
17858;SDS011;35426;30.698;104.050;2022-12-18T13:11:52;63.27;;;24.37;;
17858;SDS011;35426;30.698;104.050;2022-12-18T13:14:52;57.33;;;24.67;;
17858;SDS011;35426;30.698;104.050;2022-12-18T13:17:46;58.83;;;24.53;;
17858;SDS011;35426;30.698;104.050;2022-12-18T13:20:22;79.23;;;25.57;;
17858;SDS011;35426;30.698;104.050;2022-12-18T13:29:10;69.87;;;24.97;;
17858;SDS011;35426;30.698;104.050;2022-12-18T13:32:10;64.23;;;23.80;;
17858;SDS011;35426;30.698;104.050;2022-12-18T13:38:21;65.43;;;24.03;;
17858;SDS011;35426;30.698;104.050;2022-12-18T13:41:03;63.67;;;24.63;;
17858;SDS011;35426;30.698;104.050;2022-12-18T13:43:56;66.47;;;24.17;;
17858;SDS011;35426;30.698;104.050;2022-12-18T13:46:58;63.93;;;24.63;;
17858;SDS011;35426;30.698;104.050;2022-12-18T13:49:39;67.73;;;24.53;;
17858;SDS011;35426;30.698;104.050;2022-12-18T13:52:19;58.27;;;24.00;;
17858;SDS011;35426;30.698;104.050;2022-12-18T13:54:59;65.97;;;24.10;;
17858;SDS011;35426;30.698;104.050;2022-12-18T13:57:38;71.53;;;24.77;;
17858;SDS011;35426;30.698;104.050;2022-12-18T14:00:26;66.30;;;24.87;;
17858;SDS011;35426;30.698;104.050;2022-12-18T14:03:16;68.23;;;24.67;;
17858;SDS011;35426;30.698;104.050;2022-12-18T14:05:55;70.63;;;24.83;;
17858;SDS011;35426;30.698;104.050;2022-12-18T14:08:38;58.30;;;24.40;;
17858;SDS011;35426;30.698;104.050;2022-12-18T14:11:19;61.73;;;25.07;;
17858;SDS011;35426;30.698;104.050;2022-12-18T14:13:57;66.20;;;25.27;;
17858;SDS011;35426;30.698;104.050;2022-12-18T14:16:37;69.97;;;25.37;;
17858;SDS011;35426;30.698;104.050;2022-12-18T14:19:17;66.70;;;24.97;;
17858;SDS011;35426;30.698;104.050;2022-12-18T14:21:54;66.17;;;24.90;;
17858;SDS011;35426;30.698;104.050;2022-12-18T14:24:32;78.47;;;25.70;;
17858;SDS011;35426;30.698;104.050;2022-12-18T14:27:12;72.23;;;26.00;;
17858;SDS011;35426;30.698;104.050;2022-12-18T14:29:58;74.77;;;26.67;;
17858;SDS011;35426;30.698;104.050;2022-12-18T14:32:37;65.67;;;25.73;;
17858;SDS011;35426;30.698;104.050;2022-12-18T14:35:14;68.67;;;26.17;;
17858;SDS011;35426;30.698;104.050;2022-12-18T14:37:52;74.77;;;26.20;;
17858;SDS011;35426;30.698;104.050;2022-12-18T14:40:41;63.37;;;26.00;;
17858;SDS011;35426;30.698;104.050;2022-12-18T14:43:19;70.77;;;26.53;;
17858;SDS011;35426;30.698;104.050;2022-12-18T14:45:59;62.90;;;25.33;;
17858;SDS011;35426;30.698;104.050;2022-12-18T14:48:39;72.97;;;25.87;;
17858;SDS011;35426;30.698;104.050;2022-12-18T14:51:18;75.00;;;26.27;;
17858;SDS011;35426;30.698;104.050;2022-12-18T14:53:55;61.90;;;25.67;;
17858;SDS011;35426;30.698;104.050;2022-12-18T14:56:34;70.23;;;25.83;;
17858;SDS011;35426;30.698;104.050;2022-12-18T14:59:16;65.63;;;26.43;;
17858;SDS011;35426;30.698;104.050;2022-12-18T15:02:01;64.13;;;26.00;;
17858;SDS011;35426;30.698;104.050;2022-12-18T15:05:03;57.93;;;25.80;;
17858;SDS011;35426;30.698;104.050;2022-12-18T15:07:54;67.70;;;27.40;;
17858;SDS011;35426;30.698;104.050;2022-12-18T15:10:32;63.00;;;25.07;;
17858;SDS011;35426;30.698;104.050;2022-12-18T15:13:21;63.77;;;27.27;;
17858;SDS011;35426;30.698;104.050;2022-12-18T15:16:00;67.40;;;28.23;;
17858;SDS011;35426;30.698;104.050;2022-12-18T15:18:40;69.93;;;27.27;;
17858;SDS011;35426;30.698;104.050;2022-12-18T15:21:23;89.40;;;28.23;;
17858;SDS011;35426;30.698;104.050;2022-12-18T15:24:02;63.00;;;26.73;;